KAJZ

Blake Field Airport

Delta, Colorado, USA
METAR KAJZ 100615Z AUTO 07006KT 10SM CLR M04/M08 A3049 RMK AO2 T10381077
Observed Flight Rules
Dec-10 @ 06:15 UTC (14 minutes ago) Visual Flight Rules
Wind Visibility Clouds
70° at 6 knots 10 miles
  • Clear skies
Temperatures Readings
Current -4°C / 25°F
Dewpoint -8°C / 18°F
Humidity 74%
Altimeter 30.49" Hg
Pressure 1033 hPa
Elevation 1583
METAR KAJZ 100615Z AUTO 07006KT 10SM CLR M04/M08 A3049 RMK AO2 T10381077
Observed Flight Rules
Dec-10 @ 06:15 UTC
(14 minutes ago)
VFR
Wind Visibility
70° at 6 knots 10 miles
Clouds
  • Clear skies
Temperature Dewpoint
-4°C / 25°F -8°C / 18°F
Humidity Altimeter Pressure
74% 30.49" Hg 1033 hPa